Time;durP1;ratioP1;P1;durP2;ratioP2;P2;SDS_P1;SDS_P2;PMS_P1;PMS_P2;Temp;Humidity;BMP_temperature;BMP_pressure;BME280_temperature;BME280_humidity;BME280_pressure;Samples;Min_cycle;Max_cycle;Signal;HPM_P1;HPM_P2
2021/01/26 00:01:20;;;;;;;1.50;0.73;;;6.50;99.90;;;;;;4969546;28;20680;-87
2021/01/26 00:03:56;;;;;;;1.70;0.90;;;6.40;99.90;;;;;;4968057;29;20250;-88
2021/01/26 00:06:27;;;;;;;2.23;0.80;;;6.30;99.90;;;;;;4961715;28;20226;-88
2021/01/26 00:08:58;;;;;;;1.10;0.80;;;6.20;99.90;;;;;;4969590;29;20212;-88
2021/01/26 00:11:31;;;;;;;2.93;1.10;;;6.30;99.90;;;;;;4969256;29;20207;-87
2021/01/26 00:14:02;;;;;;;2.97;0.70;;;6.20;99.90;;;;;;4969996;28;20204;-88
2021/01/26 00:16:34;;;;;;;1.27;0.60;;;6.10;99.90;;;;;;4970341;28;20211;-88
2021/01/26 00:19:06;;;;;;;2.30;0.80;;;6.10;99.90;;;;;;4971219;29;20208;-88
2021/01/26 00:21:37;;;;;;;1.80;1.00;;;6.10;99.90;;;;;;4969327;29;20290;-88
2021/01/26 00:24:08;;;;;;;1.53;0.90;;;6.10;99.90;;;;;;4969347;28;20242;-87
2021/01/26 00:26:40;;;;;;;1.23;0.60;;;6.10;99.90;;;;;;4970062;28;20212;-88
2021/01/26 00:29:12;;;;;;;1.53;0.90;;;6.10;99.90;;;;;;4969707;28;20218;-88
2021/01/26 00:34:28;;;;;;;1.80;0.60;;;6.10;99.90;;;;;;4968830;29;20219;-88
2021/01/26 00:36:59;;;;;;;2.70;0.97;;;6.10;99.90;;;;;;4968748;28;20218;-89
2021/01/26 00:39:29;;;;;;;2.93;1.07;;;6.10;99.90;;;;;;4967103;29;20203;-88
2021/01/26 00:42:01;;;;;;;1.20;0.70;;;6.00;99.90;;;;;;4951464;29;20195;-87
2021/01/26 00:44:33;;;;;;;1.20;0.70;;;6.00;99.90;;;;;;4968590;29;20246;-87
2021/01/26 00:47:03;;;;;;;2.23;0.87;;;5.80;99.90;;;;;;4957212;29;20227;-88
2021/01/26 00:49:38;;;;;;;3.10;1.37;;;5.80;99.90;;;;;;4951533;29;20236;-87
2021/01/26 00:52:09;;;;;;;1.50;1.30;;;5.70;99.90;;;;;;4973283;28;20207;-87
2021/01/26 00:54:40;;;;;;;1.47;0.80;;;5.60;99.90;;;;;;4988587;28;20207;-88
2021/01/26 00:57:11;;;;;;;3.00;1.17;;;5.60;99.90;;;;;;4969843;28;20239;-89
2021/01/26 00:59:42;;;;;;;2.50;1.07;;;5.50;99.90;;;;;;4969871;29;20216;-88
2021/01/26 01:02:13;;;;;;;2.33;1.00;;;5.50;99.90;;;;;;4971254;29;20215;-89
2021/01/26 01:10:53;;;;;;;1.40;0.90;;;5.50;99.90;;;;;;4969104;28;20196;-88
2021/01/26 01:13:25;;;;;;;1.50;0.80;;;5.40;99.90;;;;;;4976566;29;20265;-94
2021/01/26 01:16:01;;;;;;;3.37;1.20;;;5.30;99.90;;;;;;4975909;28;20192;-89
2021/01/26 01:18:51;;;;;;;2.60;0.97;;;5.30;99.90;;;;;;4977976;28;20224;-89
2021/01/26 01:21:24;;;;;;;3.17;0.90;;;5.20;99.90;;;;;;4970506;28;20283;-87
2021/01/26 01:23:55;;;;;;;1.47;0.67;;;5.20;99.90;;;;;;4969009;29;20271;-89
2021/01/26 01:26:26;;;;;;;2.67;1.00;;;5.00;99.90;;;;;;4967884;29;20241;-88
2021/01/26 01:28:59;;;;;;;3.70;1.90;;;5.00;99.90;;;;;;4969366;28;20307;-88
2021/01/26 01:31:33;;;;;;;4.07;2.10;;;5.00;99.90;;;;;;4975755;28;20231;-88
2021/01/26 01:34:09;;;;;;;4.10;1.93;;;5.00;99.90;;;;;;4970079;28;20271;-89
2021/01/26 01:36:41;;;;;;;1.77;0.93;;;5.00;99.90;;;;;;4969776;29;20266;-88
2021/01/26 01:39:12;;;;;;;2.70;1.20;;;5.00;99.90;;;;;;4971705;29;20204;-88
2021/01/26 01:41:43;;;;;;;4.40;1.60;;;5.00;99.90;;;;;;4972991;28;20223;-87
2021/01/26 01:44:14;;;;;;;4.43;1.93;;;5.00;99.90;;;;;;4975950;28;20236;-88
2021/01/26 01:46:59;;;;;;;5.07;2.20;;;5.00;99.90;;;;;;4975630;29;20208;-89
2021/01/26 01:49:35;;;;;;;3.30;2.00;;;4.90;99.90;;;;;;4967976;28;20283;-87
2021/01/26 01:52:11;;;;;;;2.03;1.20;;;5.00;99.90;;;;;;4971287;29;20207;-88
2021/01/26 01:54:48;;;;;;;4.43;1.53;;;5.00;99.90;;;;;;4966619;28;20214;-88
2021/01/26 01:57:24;;;;;;;1.77;0.90;;;5.00;99.90;;;;;;4960599;28;20262;-89
2021/01/26 01:59:57;;;;;;;3.07;0.87;;;4.90;99.90;;;;;;4963124;28;20199;-89
2021/01/26 02:02:30;;;;;;;2.17;1.30;;;4.80;99.90;;;;;;4975543;29;20215;-88
2021/01/26 02:05:04;;;;;;;1.60;1.03;;;4.80;99.90;;;;;;4972512;29;20237;-89
2021/01/26 02:07:37;;;;;;;2.90;1.30;;;4.80;99.90;;;;;;4972470;28;20219;-89
2021/01/26 02:10:10;;;;;;;4.20;1.50;;;4.80;99.90;;;;;;4974485;28;20218;-88
2021/01/26 02:12:41;;;;;;;4.33;1.77;;;4.70;99.90;;;;;;4974480;29;20212;-89
2021/01/26 02:15:16;;;;;;;3.80;1.73;;;4.50;99.90;;;;;;4971700;28;20278;-88
2021/01/26 02:18:12;;;;;;;2.90;1.53;;;4.40;99.90;;;;;;4971682;28;20231;-88
2021/01/26 02:21:29;;;;;;;2.37;1.37;;;4.40;99.90;;;;;;4972172;28;20206;-88
2021/01/26 02:24:49;;;;;;;2.27;1.73;;;4.20;99.90;;;;;;4973997;28;20247;-89
2021/01/26 02:28:09;;;;;;;4.03;2.10;;;4.10;99.90;;;;;;4974381;28;20202;-88
2021/01/26 02:31:06;;;;;;;3.13;2.53;;;4.00;99.90;;;;;;4971314;28;20223;-88
2021/01/26 02:34:13;;;;;;;4.77;1.83;;;3.90;99.90;;;;;;4964199;29;20214;-88
2021/01/26 02:37:23;;;;;;;1.50;1.40;;;3.80;99.90;;;;;;4971242;28;20211;-89
2021/01/26 02:40:02;;;;;;;3.37;1.60;;;3.70;99.90;;;;;;4972463;29;20204;-89
2021/01/26 02:43:04;;;;;;;3.20;1.80;;;3.70;99.90;;;;;;4971253;28;20215;-88
2021/01/26 02:45:42;;;;;;;7.73;4.17;;;3.70;99.90;;;;;;4941841;29;20271;-89
2021/01/26 02:48:34;;;;;;;7.67;4.30;;;3.50;99.90;;;;;;4980288;28;20215;-89
2021/01/26 02:51:10;;;;;;;9.23;5.93;;;3.50;99.90;;;;;;4980252;28;20199;-88
2021/01/26 02:53:53;;;;;;;12.73;7.87;;;3.50;99.90;;;;;;4975983;28;20221;-88
2021/01/26 02:56:37;;;;;;;11.23;7.53;;;3.60;99.90;;;;;;4975796;29;20238;-88
2021/01/26 02:59:17;;;;;;;5.33;4.43;;;3.70;99.90;;;;;;4976534;28;20222;-88
2021/01/26 03:01:52;;;;;;;4.13;3.03;;;3.80;99.90;;;;;;4986120;28;20242;-89
2021/01/26 03:04:29;;;;;;;2.63;1.90;;;3.80;99.90;;;;;;4974936;28;20253;-88
2021/01/26 03:07:02;;;;;;;4.83;1.43;;;3.80;99.90;;;;;;4978525;28;20222;-89
2021/01/26 03:09:38;;;;;;;1.13;0.93;;;3.60;99.90;;;;;;4973764;29;20211;-89
2021/01/26 03:12:17;;;;;;;2.30;1.20;;;3.60;99.90;;;;;;4970887;28;20294;-88
2021/01/26 03:14:57;;;;;;;2.20;1.50;;;3.50;99.90;;;;;;4976298;28;20203;-89
2021/01/26 03:17:33;;;;;;;4.40;1.63;;;3.40;99.90;;;;;;4973932;28;20215;-89
2021/01/26 03:20:13;;;;;;;2.60;1.37;;;3.40;99.90;;;;;;4970984;28;20210;-89
2021/01/26 03:22:50;;;;;;;3.60;1.53;;;3.30;99.90;;;;;;4957579;29;20514;-88
2021/01/26 03:25:24;;;;;;;2.73;1.97;;;3.20;99.90;;;;;;4974236;29;20607;-88
2021/01/26 03:28:00;;;;;;;2.60;2.40;;;3.10;99.90;;;;;;4975633;28;20240;-87
2021/01/26 03:30:35;;;;;;;3.03;2.33;;;3.10;99.90;;;;;;4979020;28;20212;-87
2021/01/26 03:33:13;;;;;;;3.90;3.10;;;3.00;99.90;;;;;;4978728;28;20235;-89
2021/01/26 03:35:45;;;;;;;3.37;2.60;;;2.90;99.90;;;;;;4975239;29;20223;-87
2021/01/26 03:38:19;;;;;;;6.00;2.70;;;2.90;99.90;;;;;;4976982;29;20830;-88
2021/01/26 03:40:52;;;;;;;4.07;3.00;;;2.90;99.90;;;;;;4974861;29;20215;-88
2021/01/26 03:43:27;;;;;;;4.73;2.63;;;2.90;99.90;;;;;;4969157;29;20302;-89
2021/01/26 03:46:08;;;;;;;4.27;2.50;;;3.00;99.90;;;;;;4966243;29;20239;-88
2021/01/26 03:48:51;;;;;;;2.97;2.30;;;3.00;99.90;;;;;;4951872;29;20553;-89
2021/01/26 03:51:36;;;;;;;2.80;1.90;;;3.10;99.90;;;;;;4967588;28;20208;-88
2021/01/26 03:54:26;;;;;;;3.47;2.37;;;3.10;99.90;;;;;;4965947;28;20266;-89
2021/01/26 03:57:14;;;;;;;3.50;2.70;;;3.10;99.90;;;;;;4964139;29;20219;-89
2021/01/26 04:00:00;;;;;;;7.60;4.53;;;3.10;99.90;;;;;;4968532;28;20576;-89
2021/01/26 04:02:43;;;;;;;5.83;4.00;;;3.00;99.90;;;;;;4959768;28;20232;-89
2021/01/26 04:05:22;;;;;;;3.57;2.10;;;2.90;99.90;;;;;;4970145;28;20540;-90
2021/01/26 04:08:01;;;;;;;7.30;3.67;;;2.90;99.90;;;;;;4941375;29;20212;-89
2021/01/26 04:10:37;;;;;;;3.23;2.53;;;2.80;99.90;;;;;;4964275;28;20212;-89
2021/01/26 04:13:12;;;;;;;4.43;2.70;;;2.70;99.90;;;;;;4968385;28;20282;-89
2021/01/26 04:15:50;;;;;;;3.27;2.60;;;2.70;99.90;;;;;;4969220;29;20222;-90
2021/01/26 04:18:26;;;;;;;2.77;2.33;;;2.70;99.90;;;;;;4969834;28;20255;-89
2021/01/26 04:21:01;;;;;;;5.57;3.13;;;2.60;99.90;;;;;;4953644;29;20693;-90
2021/01/26 04:23:32;;;;;;;3.50;3.20;;;2.60;99.90;;;;;;4947451;29;20222;-89
2021/01/26 04:26:08;;;;;;;5.77;2.97;;;2.50;99.90;;;;;;4969652;29;20687;-88
2021/01/26 04:28:41;;;;;;;2.77;2.00;;;2.50;99.90;;;;;;4969090;29;20227;-88
2021/01/26 04:31:16;;;;;;;4.30;2.10;;;2.40;99.90;;;;;;4963987;28;20234;-89
2021/01/26 04:33:48;;;;;;;4.17;2.67;;;2.40;99.90;;;;;;4956863;29;20221;-89
2021/01/26 04:36:22;;;;;;;3.60;3.00;;;2.40;99.90;;;;;;4958838;28;20699;-88
2021/01/26 04:38:53;;;;;;;4.10;3.70;;;2.30;99.90;;;;;;4978507;28;20226;-88
2021/01/26 04:41:33;;;;;;;6.17;4.93;;;2.30;99.90;;;;;;4977689;28;20261;-90
2021/01/26 04:44:39;;;;;;;7.90;4.80;;;2.30;99.90;;;;;;4979054;28;20244;-88
2021/01/26 04:47:17;;;;;;;6.43;4.37;;;2.30;99.90;;;;;;4917420;29;20211;-89
2021/01/26 04:49:59;;;;;;;8.17;4.77;;;2.20;99.90;;;;;;4966498;28;20234;-89
2021/01/26 04:52:57;;;;;;;8.37;4.73;;;2.20;99.90;;;;;;4968116;29;20247;-89
2021/01/26 04:55:41;;;;;;;4.17;2.40;;;2.20;99.90;;;;;;4949199;29;20289;-88
2021/01/26 04:58:25;;;;;;;18.57;10.43;;;2.10;99.90;;;;;;4965873;28;20215;-89
2021/01/26 05:01:11;;;;;;;18.63;10.53;;;2.10;99.90;;;;;;4965314;29;20304;-89
2021/01/26 05:04:04;;;;;;;14.37;8.53;;;2.20;99.90;;;;;;4969240;28;20222;-89
2021/01/26 05:06:51;;;;;;;19.07;10.87;;;2.30;99.90;;;;;;4961726;28;20231;-89
2021/01/26 05:09:27;;;;;;;15.17;8.60;;;2.30;99.90;;;;;;4962763;28;20203;-90
2021/01/26 05:14:47;;;;;;;12.90;8.30;;;2.40;99.90;;;;;;5201594;23;20236;-96
2021/01/26 05:17:22;;;;;;;11.13;6.97;;;2.50;99.90;;;;;;5260608;23;20251;-92
2021/01/26 05:20:00;;;;;;;6.60;3.90;;;2.50;99.90;;;;;;5016888;28;20205;-93
2021/01/26 05:22:38;;;;;;;6.70;4.00;;;2.60;99.90;;;;;;5016880;28;20209;-91
2021/01/26 05:25:12;;;;;;;8.10;4.57;;;2.70;99.90;;;;;;5017098;28;20748;-91
2021/01/26 05:27:43;;;;;;;9.73;4.43;;;2.70;99.90;;;;;;5017190;28;20236;-91
2021/01/26 05:30:24;;;;;;;9.57;5.20;;;2.70;99.90;;;;;;5018080;28;20218;-92
2021/01/26 05:32:57;;;;;;;10.33;6.70;;;2.80;99.90;;;;;;5018282;28;20219;-92
2021/01/26 05:35:30;;;;;;;11.87;7.60;;;2.70;99.90;;;;;;5041060;28;20201;-92
2021/01/26 05:38:00;;;;;;;10.23;7.77;;;2.70;99.90;;;;;;5025859;28;20609;-92
2021/01/26 05:40:35;;;;;;;11.00;7.90;;;2.60;99.90;;;;;;5021023;28;20210;-92
2021/01/26 05:43:09;;;;;;;6.23;3.73;;;2.60;99.90;;;;;;5019954;28;20209;-92
2021/01/26 05:45:45;;;;;;;7.57;4.30;;;2.60;99.90;;;;;;5025228;28;20240;-91
2021/01/26 05:48:18;;;;;;;5.53;3.67;;;2.60;99.90;;;;;;5030604;28;20208;-92
2021/01/26 05:50:52;;;;;;;5.07;2.97;;;2.60;99.90;;;;;;5022093;28;20209;-93
2021/01/26 05:53:29;;;;;;;6.00;3.23;;;2.60;99.90;;;;;;5026651;28;20202;-93
2021/01/26 05:56:10;;;;;;;4.83;3.17;;;2.60;99.90;;;;;;5023173;28;20528;-93
2021/01/26 05:58:43;;;;;;;4.47;3.20;;;2.60;99.90;;;;;;5032324;28;20190;-93
2021/01/26 06:01:25;;;;;;;4.77;3.37;;;2.50;99.90;;;;;;5021020;28;20210;-92
2021/01/26 06:04:11;;;;;;;5.90;3.20;;;2.50;99.90;;;;;;5032547;28;20276;-95
2021/01/26 06:07:00;;;;;;;7.10;3.20;;;2.40;99.90;;;;;;4662850;28;9999640;-88
2021/01/26 06:09:34;;;;;;;6.37;3.37;;;2.40;99.90;;;;;;5065830;22;20252;-89
2021/01/26 06:12:16;;;;;;;6.40;3.20;;;2.40;99.90;;;;;;5024658;28;20209;-89
2021/01/26 06:15:03;;;;;;;5.57;3.37;;;2.50;99.90;;;;;;5026976;28;20205;-89
2021/01/26 06:17:35;;;;;;;5.87;3.17;;;2.50;99.90;;;;;;5016517;28;20198;-89
2021/01/26 06:20:16;;;;;;;5.87;3.30;;;2.50;99.90;;;;;;5024407;28;20209;-88
2021/01/26 06:22:50;;;;;;;5.23;3.83;;;2.50;99.90;;;;;;5021339;28;20202;-88
2021/01/26 06:25:27;;;;;;;7.97;4.60;;;2.60;99.90;;;;;;5022311;28;20680;-87
2021/01/26 06:28:15;;;;;;;6.37;4.60;;;2.50;99.90;;;;;;5015281;28;20312;-88
2021/01/26 06:30:56;;;;;;;9.90;6.07;;;2.50;99.90;;;;;;5015063;28;20220;-88
2021/01/26 06:34:04;;;;;;;9.17;5.70;;;2.50;99.90;;;;;;5016238;28;20217;-89
2021/01/26 06:37:10;;;;;;;7.83;4.90;;;2.40;99.90;;;;;;5016619;28;20289;-89
2021/01/26 06:40:23;;;;;;;7.63;4.70;;;2.30;99.90;;;;;;5022129;28;20265;-89
2021/01/26 06:43:03;;;;;;;11.20;4.60;;;2.20;99.90;;;;;;4994448;28;20276;-88
2021/01/26 06:45:40;;;;;;;5.53;4.10;;;2.10;99.90;;;;;;5012148;28;20267;-89
2021/01/26 06:48:24;;;;;;;7.07;4.33;;;2.00;99.90;;;;;;5005847;28;20201;-89
2021/01/26 06:51:18;;;;;;;6.87;4.70;;;1.90;99.90;;;;;;5019134;28;20210;-89
2021/01/26 06:54:04;;;;;;;6.63;4.33;;;1.80;99.90;;;;;;5003326;28;20209;-89
2021/01/26 06:57:06;;;;;;;7.60;4.37;;;1.80;99.90;;;;;;5019610;28;20271;-89
2021/01/26 07:00:13;;;;;;;7.10;4.00;;;1.80;99.90;;;;;;5018736;28;20738;-89
2021/01/26 07:03:22;;;;;;;4.90;3.80;;;1.80;99.90;;;;;;5005083;28;20209;-89
2021/01/26 07:06:13;;;;;;;5.53;3.40;;;1.80;99.90;;;;;;5000236;28;20243;-89
2021/01/26 07:09:06;;;;;;;6.50;3.90;;;1.80;99.90;;;;;;5017032;28;20233;-88
2021/01/26 07:12:11;;;;;;;6.63;3.63;;;1.90;99.90;;;;;;5018618;28;20201;-88
2021/01/26 07:15:03;;;;;;;6.53;3.63;;;2.00;99.90;;;;;;5018859;28;20237;-88
2021/01/26 07:17:46;;;;;;;5.63;3.53;;;2.00;99.90;;;;;;5024816;28;20274;-88
2021/01/26 07:20:27;;;;;;;6.67;3.90;;;2.10;99.90;;;;;;5027267;28;20292;-89
2021/01/26 07:23:23;;;;;;;5.50;3.90;;;2.20;99.90;;;;;;5017870;28;20212;-89
2021/01/26 07:26:21;;;;;;;8.03;3.77;;;2.30;99.90;;;;;;5018722;28;20322;-88
2021/01/26 07:29:16;;;;;;;5.90;3.80;;;2.30;99.90;;;;;;4998238;28;20235;-88
2021/01/26 07:31:52;;;;;;;4.83;3.47;;;2.40;99.90;;;;;;5017727;28;20228;-89
2021/01/26 07:34:29;;;;;;;6.10;3.83;;;2.50;99.90;;;;;;5019189;28;20204;-89
2021/01/26 07:37:08;;;;;;;7.47;3.90;;;2.50;99.90;;;;;;5018489;28;20237;-89
2021/01/26 07:39:44;;;;;;;6.23;3.90;;;2.50;99.90;;;;;;5018973;28;20232;-88
2021/01/26 07:42:21;;;;;;;4.20;3.43;;;2.50;99.90;;;;;;5019458;28;20203;-90
2021/01/26 07:45:00;;;;;;;5.83;3.30;;;2.50;99.90;;;;;;5019183;28;20232;-89
2021/01/26 07:47:37;;;;;;;5.07;3.20;;;2.50;99.90;;;;;;5019752;28;20213;-89
2021/01/26 07:50:11;;;;;;;6.23;3.60;;;2.50;99.90;;;;;;5019251;28;20210;-89
2021/01/26 07:52:48;;;;;;;5.90;3.30;;;2.60;99.90;;;;;;5025050;28;20215;-89
2021/01/26 07:55:25;;;;;;;5.70;3.30;;;2.50;99.90;;;;;;5035257;28;20229;-89
2021/01/26 07:58:06;;;;;;;7.03;3.13;;;2.50;99.90;;;;;;5035386;28;20209;-89
2021/01/26 08:00:39;;;;;;;4.20;2.97;;;2.50;99.90;;;;;;5033470;28;20347;-90
2021/01/26 08:03:12;;;;;;;5.17;2.87;;;2.50;99.90;;;;;;5035228;28;20213;-88
2021/01/26 08:05:46;;;;;;;7.00;2.97;;;2.40;99.90;;;;;;5036958;28;20237;-89
2021/01/26 08:08:24;;;;;;;5.03;3.00;;;2.40;99.90;;;;;;5036845;28;20196;-89
2021/01/26 08:11:18;;;;;;;4.90;2.73;;;2.40;99.90;;;;;;5035089;28;20228;-89
2021/01/26 08:13:54;;;;;;;4.93;3.23;;;2.50;99.90;;;;;;5035522;28;20212;-88
2021/01/26 08:16:31;;;;;;;5.40;2.87;;;2.50;99.90;;;;;;5035274;28;20243;-89
2021/01/26 08:19:07;;;;;;;4.70;2.60;;;2.60;99.90;;;;;;5035437;28;20215;-89
2021/01/26 08:21:42;;;;;;;4.53;2.60;;;2.50;99.90;;;;;;5034053;28;20205;-89
2021/01/26 08:24:18;;;;;;;3.20;2.50;;;2.50;99.90;;;;;;5034586;28;20200;-88
2021/01/26 08:26:49;;;;;;;3.80;2.50;;;2.60;99.90;;;;;;5032813;28;20213;-90
2021/01/26 08:29:54;;;;;;;3.00;2.37;;;2.60;99.90;;;;;;5032122;28;20229;-89
2021/01/26 08:33:13;;;;;;;3.57;2.27;;;2.60;99.90;;;;;;4970769;29;20223;-89
2021/01/26 08:36:02;;;;;;;4.50;2.50;;;2.60;99.90;;;;;;4965394;29;20288;-89
2021/01/26 08:39:05;;;;;;;3.53;2.23;;;2.60;99.90;;;;;;5017359;28;20285;-88
2021/01/26 08:41:48;;;;;;;3.20;2.33;;;2.60;99.90;;;;;;5001239;28;20209;-88
2021/01/26 08:44:47;;;;;;;3.90;2.50;;;2.60;99.90;;;;;;5023817;28;20224;-90
2021/01/26 08:47:49;;;;;;;4.13;2.17;;;2.60;99.90;;;;;;5027960;28;20210;-89
2021/01/26 08:50:30;;;;;;;5.00;2.57;;;2.60;99.90;;;;;;5019009;28;20248;-90
2021/01/26 08:53:21;;;;;;;4.97;2.50;;;2.60;99.90;;;;;;5003579;28;20216;-90
2021/01/26 08:55:54;;;;;;;3.80;2.00;;;2.50;99.90;;;;;;5020169;28;20744;-89
2021/01/26 08:58:42;;;;;;;2.63;1.67;;;2.50;99.90;;;;;;5019273;28;20209;-89
2021/01/26 09:01:34;;;;;;;4.53;2.10;;;2.50;99.90;;;;;;5022787;28;20210;-89
2021/01/26 09:04:38;;;;;;;3.33;2.20;;;2.50;99.90;;;;;;5006583;28;20662;-89
2021/01/26 09:07:09;;;;;;;2.67;2.13;;;2.50;99.90;;;;;;5001881;28;20218;-90
2021/01/26 09:09:53;;;;;;;3.27;1.90;;;2.50;99.90;;;;;;4997663;28;20225;-89
2021/01/26 09:12:27;;;;;;;6.13;2.23;;;2.50;99.90;;;;;;5013863;28;20209;-89
2021/01/26 09:15:04;;;;;;;4.97;2.00;;;2.50;99.90;;;;;;5001060;28;20213;-91
2021/01/26 09:17:37;;;;;;;3.67;2.10;;;2.50;99.90;;;;;;5018933;28;20216;-91
2021/01/26 09:20:12;;;;;;;3.07;2.00;;;2.40;99.90;;;;;;5018625;28;20221;-88
2021/01/26 09:22:44;;;;;;;3.97;2.47;;;2.40;99.90;;;;;;5013032;28;20202;-91
2021/01/26 09:25:22;;;;;;;4.10;1.93;;;2.40;99.90;;;;;;4998937;28;20308;-90
2021/01/26 09:27:59;;;;;;;3.50;1.80;;;2.30;99.90;;;;;;5003159;28;20281;-89
2021/01/26 09:30:31;;;;;;;2.80;1.80;;;2.30;99.90;;;;;;5026688;28;20205;-90
2021/01/26 09:33:18;;;;;;;2.93;1.47;;;2.20;99.90;;;;;;5027409;28;20685;-90
2021/01/26 09:35:51;;;;;;;2.87;1.80;;;2.20;99.90;;;;;;5031664;28;20221;-89
2021/01/26 09:38:27;;;;;;;3.87;1.93;;;2.20;99.90;;;;;;5017443;28;20614;-90
2021/01/26 09:41:01;;;;;;;2.70;2.03;;;2.10;99.90;;;;;;5018867;28;20243;-90
2021/01/26 09:43:34;;;;;;;3.17;2.10;;;2.10;99.90;;;;;;5021052;28;20210;-91
2021/01/26 09:46:08;;;;;;;3.60;2.10;;;2.00;99.90;;;;;;5017111;28;20245;-91
2021/01/26 09:48:56;;;;;;;3.87;1.73;;;2.00;99.90;;;;;;5022580;28;20240;-91
2021/01/26 09:51:38;;;;;;;3.60;1.70;;;1.90;99.90;;;;;;5021997;28;20202;-91
2021/01/26 09:54:23;;;;;;;2.43;1.70;;;1.90;99.90;;;;;;5022250;28;20208;-90
2021/01/26 09:56:57;;;;;;;3.20;2.03;;;1.80;99.90;;;;;;5023638;28;20241;-90
2021/01/26 09:59:58;;;;;;;3.63;1.90;;;1.80;99.90;;;;;;5024721;28;20224;-90
2021/01/26 10:02:40;;;;;;;3.97;1.73;;;1.70;99.90;;;;;;5024527;28;20208;-90
2021/01/26 10:05:14;;;;;;;3.20;1.73;;;1.60;99.90;;;;;;5024957;28;20229;-90
2021/01/26 10:11:31;;;;;;;2.40;1.93;;;1.50;99.90;;;;;;5018775;28;20213;-90
2021/01/26 10:14:20;;;;;;;1.97;1.53;;;1.40;99.90;;;;;;5016898;28;20221;-90
2021/01/26 10:16:57;;;;;;;2.10;1.40;;;1.40;99.90;;;;;;5019293;28;20277;-90
2021/01/26 10:19:31;;;;;;;2.20;1.60;;;1.30;99.90;;;;;;5018494;28;20248;-90
2021/01/26 10:22:11;;;;;;;3.90;1.90;;;1.30;99.90;;;;;;5021769;28;20239;-89
2021/01/26 10:24:42;;;;;;;3.20;1.67;;;1.30;99.90;;;;;;5022852;28;20208;-90
2021/01/26 10:27:15;;;;;;;3.40;1.80;;;1.30;99.90;;;;;;5026611;28;20229;-90
2021/01/26 10:29:48;;;;;;;2.57;1.87;;;1.40;99.90;;;;;;5035798;28;20201;-89
2021/01/26 10:32:40;;;;;;;3.80;1.77;;;1.40;99.90;;;;;;5034345;28;20197;-88
2021/01/26 10:35:27;;;;;;;2.90;1.80;;;1.40;99.90;;;;;;5025899;28;20235;-89
2021/01/26 10:37:59;;;;;;;3.37;1.67;;;1.50;99.90;;;;;;5021449;28;20216;-89
2021/01/26 10:40:34;;;;;;;4.63;1.73;;;1.40;99.90;;;;;;5020513;28;20241;-89
2021/01/26 10:43:10;;;;;;;2.17;1.60;;;1.50;99.90;;;;;;5028472;28;20215;-91
2021/01/26 10:45:45;;;;;;;3.27;1.67;;;1.50;99.90;;;;;;5002029;28;20358;-90
2021/01/26 10:48:35;;;;;;;2.00;1.47;;;1.50;99.90;;;;;;5021473;28;20232;-89
2021/01/26 10:51:16;;;;;;;4.00;1.70;;;1.60;99.90;;;;;;5021388;28;20261;-88
2021/01/26 10:53:49;;;;;;;3.70;1.90;;;1.50;99.90;;;;;;5020616;28;20528;-89
2021/01/26 10:56:20;;;;;;;2.37;1.93;;;1.50;99.90;;;;;;5020999;28;20213;-89
2021/01/26 10:58:51;;;;;;;3.30;2.20;;;1.40;99.90;;;;;;5020076;28;20257;-89
2021/01/26 11:01:25;;;;;;;6.00;2.13;;;1.30;99.90;;;;;;5019535;28;20209;-88
2021/01/26 11:03:56;;;;;;;6.63;3.37;;;1.30;99.90;;;;;;5020588;28;20281;-90
2021/01/26 11:06:28;;;;;;;5.57;3.03;;;1.20;99.90;;;;;;5022287;28;20237;-90
2021/01/26 11:08:59;;;;;;;6.90;3.90;;;1.20;99.90;;;;;;5021578;28;20218;-89
2021/01/26 11:11:31;;;;;;;6.73;4.50;;;1.10;99.90;;;;;;5019538;28;20205;-89
2021/01/26 11:14:06;;;;;;;8.17;4.77;;;1.00;99.90;;;;;;5021151;28;20216;-89
2021/01/26 11:16:38;;;;;;;8.57;5.50;;;1.00;99.90;;;;;;5019186;28;20276;-89
2021/01/26 11:19:15;;;;;;;9.23;5.93;;;0.90;99.90;;;;;;5022113;28;20300;-88
2021/01/26 11:21:46;;;;;;;8.40;5.57;;;0.90;99.90;;;;;;5019681;28;20275;-89
2021/01/26 11:24:17;;;;;;;9.47;5.93;;;0.80;99.90;;;;;;5018987;28;20209;-90
2021/01/26 11:26:46;;;;;;;9.50;4.70;;;0.80;99.90;;;;;;5019852;28;20601;-90
2021/01/26 11:29:17;;;;;;;9.93;5.83;;;0.80;99.90;;;;;;5019578;28;20266;-91
2021/01/26 11:31:49;;;;;;;7.07;4.50;;;0.70;99.90;;;;;;5017900;28;20650;-90
2021/01/26 11:34:20;;;;;;;9.70;4.43;;;0.70;99.90;;;;;;5020239;28;20304;-90
2021/01/26 11:36:51;;;;;;;8.10;4.43;;;0.70;99.90;;;;;;5020159;28;20210;-90
2021/01/26 11:39:21;;;;;;;6.43;3.43;;;0.60;99.90;;;;;;5019650;28;20265;-90
2021/01/26 11:41:52;;;;;;;4.80;2.80;;;0.60;99.90;;;;;;5018587;28;20252;-90
2021/01/26 11:44:23;;;;;;;5.60;3.60;;;0.60;99.90;;;;;;5019350;28;20296;-90
2021/01/26 11:46:55;;;;;;;6.33;3.60;;;0.70;99.90;;;;;;5019615;28;20659;-89
2021/01/26 11:49:25;;;;;;;6.10;3.83;;;0.60;99.90;;;;;;5022040;28;20277;-90
2021/01/26 11:51:57;;;;;;;5.40;3.17;;;0.60;99.90;;;;;;5018679;28;20234;-90
2021/01/26 11:54:27;;;;;;;5.40;3.27;;;0.70;99.90;;;;;;5018160;28;20229;-90
2021/01/26 11:56:57;;;;;;;5.40;3.73;;;0.70;99.90;;;;;;5020434;28;20292;-89
2021/01/26 11:59:28;;;;;;;4.97;3.37;;;0.80;99.90;;;;;;5018106;28;20202;-89
2021/01/26 12:02:02;;;;;;;7.13;4.20;;;0.80;99.90;;;;;;4999730;28;20289;-89
2021/01/26 12:04:33;;;;;;;7.13;4.00;;;0.90;99.90;;;;;;5002629;28;20301;-89
2021/01/26 12:07:05;;;;;;;8.07;3.67;;;0.90;99.90;;;;;;5019157;28;20236;-90
2021/01/26 12:09:35;;;;;;;10.10;5.10;;;1.00;99.90;;;;;;5019798;28;20284;-89
2021/01/26 12:12:06;;;;;;;7.37;4.40;;;1.10;99.90;;;;;;5021041;28;20239;-89
2021/01/26 12:14:38;;;;;;;11.23;5.10;;;1.20;99.90;;;;;;5001617;28;20216;-89
2021/01/26 12:17:10;;;;;;;8.20;5.83;;;1.20;99.90;;;;;;5018502;28;20308;-90
2021/01/26 12:19:41;;;;;;;11.77;5.83;;;1.30;99.90;;;;;;5018312;28;20570;-89
2021/01/26 12:22:12;;;;;;;12.23;7.27;;;1.30;99.90;;;;;;5017628;28;20256;-89
2021/01/26 12:24:43;;;;;;;13.20;7.33;;;1.40;99.90;;;;;;5017973;28;20612;-89
2021/01/26 12:27:13;;;;;;;17.10;8.80;;;1.40;99.90;;;;;;5019754;28;20280;-88
2021/01/26 12:29:47;;;;;;;8.97;5.33;;;1.40;99.90;;;;;;5019925;28;20579;-89
2021/01/26 12:32:19;;;;;;;13.47;6.93;;;1.40;99.90;;;;;;5019103;28;20205;-89
2021/01/26 12:34:50;;;;;;;13.07;8.70;;;1.50;99.90;;;;;;5013200;28;20214;-88
2021/01/26 12:37:22;;;;;;;13.63;8.00;;;1.50;99.90;;;;;;5013644;28;20260;-90
2021/01/26 12:39:52;;;;;;;10.00;5.20;;;1.50;99.90;;;;;;5033346;28;20198;-90
2021/01/26 12:42:24;;;;;;;7.10;4.40;;;1.50;99.90;;;;;;5032400;28;20197;-89
2021/01/26 12:44:55;;;;;;;8.90;5.43;;;1.60;99.90;;;;;;5016372;28;20206;-90
2021/01/26 12:47:27;;;;;;;8.57;4.83;;;1.60;99.90;;;;;;5030637;23;20277;-89
2021/01/26 12:49:58;;;;;;;11.70;6.53;;;1.60;99.90;;;;;;4986927;28;20207;-91
2021/01/26 12:52:29;;;;;;;14.60;9.27;;;1.70;99.90;;;;;;4997815;28;20212;-90
2021/01/26 12:55:00;;;;;;;13.53;7.83;;;1.70;99.90;;;;;;4984957;28;20199;-89
2021/01/26 12:57:31;;;;;;;10.27;6.17;;;1.70;99.90;;;;;;4969350;28;20245;-89
2021/01/26 13:00:02;;;;;;;5.50;3.83;;;1.70;99.90;;;;;;4996893;28;20203;-91
2021/01/26 13:02:35;;;;;;;6.43;4.00;;;1.70;99.90;;;;;;4997119;28;20256;-88
2021/01/26 13:05:07;;;;;;;5.30;3.60;;;1.70;99.90;;;;;;4997937;28;20218;-89
2021/01/26 13:07:37;;;;;;;3.73;2.67;;;1.80;99.90;;;;;;4981462;28;20203;-90
2021/01/26 13:10:11;;;;;;;3.80;2.73;;;1.80;99.90;;;;;;4982363;28;20297;-89
2021/01/26 13:12:41;;;;;;;4.87;2.63;;;1.80;99.90;;;;;;4978121;28;20211;-90
2021/01/26 13:15:15;;;;;;;3.20;2.20;;;1.80;99.90;;;;;;4994264;28;20651;-90
2021/01/26 13:17:47;;;;;;;4.57;2.17;;;1.80;99.90;;;;;;4989413;28;20576;-89
2021/01/26 13:20:18;;;;;;;3.60;2.70;;;1.80;99.90;;;;;;4981573;28;20202;-89
2021/01/26 13:22:49;;;;;;;3.87;2.60;;;1.80;99.90;;;;;;4991836;28;20200;-89
2021/01/26 13:25:23;;;;;;;3.60;2.70;;;1.80;99.90;;;;;;4979611;28;20225;-89
2021/01/26 13:27:55;;;;;;;4.60;2.67;;;1.80;99.90;;;;;;4989064;28;20213;-91
2021/01/26 13:30:28;;;;;;;4.53;2.57;;;1.80;99.90;;;;;;4989979;28;20261;-88
2021/01/26 13:33:01;;;;;;;3.60;2.10;;;1.80;99.90;;;;;;4996722;28;20558;-89
2021/01/26 13:35:32;;;;;;;5.13;2.43;;;1.80;99.90;;;;;;4999551;28;20293;-90
2021/01/26 13:38:05;;;;;;;3.03;2.00;;;1.80;99.90;;;;;;4990153;28;20202;-90
2021/01/26 13:40:35;;;;;;;2.23;1.73;;;1.70;99.90;;;;;;4982675;28;20655;-89
2021/01/26 13:43:07;;;;;;;2.60;1.87;;;1.80;99.90;;;;;;4982247;28;20285;-89
2021/01/26 13:45:38;;;;;;;1.93;1.50;;;1.80;99.90;;;;;;4997817;28;20686;-88
2021/01/26 13:48:11;;;;;;;3.23;1.60;;;1.80;99.90;;;;;;4985972;28;20213;-89
2021/01/26 13:50:42;;;;;;;3.30;1.90;;;1.70;99.90;;;;;;4978027;28;20265;-89
2021/01/26 13:53:13;;;;;;;2.20;1.60;;;1.80;99.90;;;;;;4993187;28;20230;-88
2021/01/26 13:55:44;;;;;;;3.40;1.70;;;1.80;99.90;;;;;;4989692;28;20237;-88
2021/01/26 13:58:15;;;;;;;2.97;1.60;;;1.80;99.90;;;;;;5000690;28;20416;-89
2021/01/26 14:00:45;;;;;;;3.50;1.87;;;1.80;99.90;;;;;;4996635;28;20198;-89
2021/01/26 14:03:18;;;;;;;2.73;1.83;;;1.80;99.90;;;;;;5000455;28;20195;-90
2021/01/26 14:05:50;;;;;;;3.03;2.07;;;1.80;99.90;;;;;;4999252;28;20236;-89
2021/01/26 14:08:21;;;;;;;3.23;2.37;;;1.80;99.90;;;;;;4998958;28;20242;-89